sensor_id;sensor_type;location;lat;lon;timestamp;P1;durP1;ratioP1;P2;durP2;ratioP2
4957;SDS011;2494;51.872;9.688;2023-04-25T00:00:13;13.23;;;6.07;;
4957;SDS011;2494;51.872;9.688;2023-04-25T00:03:00;10.07;;;5.70;;
4957;SDS011;2494;51.872;9.688;2023-04-25T00:05:45;10.87;;;7.10;;
4957;SDS011;2494;51.872;9.688;2023-04-25T00:08:31;11.77;;;6.50;;
4957;SDS011;2494;51.872;9.688;2023-04-25T00:11:16;14.37;;;6.57;;
4957;SDS011;2494;51.872;9.688;2023-04-25T00:14:01;17.43;;;6.47;;
4957;SDS011;2494;51.872;9.688;2023-04-25T00:16:46;14.07;;;6.43;;
4957;SDS011;2494;51.872;9.688;2023-04-25T00:19:34;10.20;;;6.20;;
4957;SDS011;2494;51.872;9.688;2023-04-25T00:22:20;8.73;;;5.57;;
4957;SDS011;2494;51.872;9.688;2023-04-25T00:25:05;13.37;;;6.27;;
4957;SDS011;2494;51.872;9.688;2023-04-25T00:27:51;16.40;;;6.90;;
4957;SDS011;2494;51.872;9.688;2023-04-25T00:30:38;16.13;;;6.70;;
4957;SDS011;2494;51.872;9.688;2023-04-25T00:33:23;14.70;;;6.40;;
4957;SDS011;2494;51.872;9.688;2023-04-25T00:36:09;15.73;;;6.90;;
4957;SDS011;2494;51.872;9.688;2023-04-25T00:38:54;13.87;;;7.70;;
4957;SDS011;2494;51.872;9.688;2023-04-25T00:41:39;8.57;;;6.00;;
4957;SDS011;2494;51.872;9.688;2023-04-25T00:44:24;12.23;;;6.47;;
4957;SDS011;2494;51.872;9.688;2023-04-25T00:47:12;13.90;;;6.70;;
4957;SDS011;2494;51.872;9.688;2023-04-25T00:49:58;11.97;;;5.90;;
4957;SDS011;2494;51.872;9.688;2023-04-25T00:52:45;11.80;;;6.23;;
4957;SDS011;2494;51.872;9.688;2023-04-25T00:55:30;9.07;;;5.50;;
4957;SDS011;2494;51.872;9.688;2023-04-25T00:58:16;6.90;;;5.40;;
4957;SDS011;2494;51.872;9.688;2023-04-25T01:01:01;17.33;;;6.43;;
4957;SDS011;2494;51.872;9.688;2023-04-25T01:03:46;12.60;;;6.63;;
4957;SDS011;2494;51.872;9.688;2023-04-25T01:06:33;11.80;;;6.73;;
4957;SDS011;2494;51.872;9.688;2023-04-25T01:09:19;16.03;;;6.47;;
4957;SDS011;2494;51.872;9.688;2023-04-25T01:12:04;13.50;;;6.60;;
4957;SDS011;2494;51.872;9.688;2023-04-25T01:14:50;12.30;;;6.37;;
4957;SDS011;2494;51.872;9.688;2023-04-25T01:17:35;9.20;;;5.23;;
4957;SDS011;2494;51.872;9.688;2023-04-25T01:20:20;7.53;;;6.00;;
4957;SDS011;2494;51.872;9.688;2023-04-25T01:23:08;11.27;;;6.67;;
4957;SDS011;2494;51.872;9.688;2023-04-25T01:25:54;13.03;;;6.43;;
4957;SDS011;2494;51.872;9.688;2023-04-25T01:28:39;13.20;;;6.33;;
4957;SDS011;2494;51.872;9.688;2023-04-25T01:31:26;16.63;;;6.80;;
4957;SDS011;2494;51.872;9.688;2023-04-25T01:34:12;11.13;;;5.67;;
4957;SDS011;2494;51.872;9.688;2023-04-25T01:36:57;9.27;;;5.47;;
4957;SDS011;2494;51.872;9.688;2023-04-25T01:39:45;10.43;;;5.67;;
4957;SDS011;2494;51.872;9.688;2023-04-25T01:42:34;11.60;;;6.23;;
4957;SDS011;2494;51.872;9.688;2023-04-25T01:45:20;14.23;;;7.57;;
4957;SDS011;2494;51.872;9.688;2023-04-25T01:48:05;11.63;;;7.10;;
4957;SDS011;2494;51.872;9.688;2023-04-25T01:50:51;14.13;;;8.00;;
4957;SDS011;2494;51.872;9.688;2023-04-25T01:53:36;14.17;;;6.40;;
4957;SDS011;2494;51.872;9.688;2023-04-25T01:56:23;12.10;;;7.37;;
4957;SDS011;2494;51.872;9.688;2023-04-25T01:59:08;8.23;;;7.43;;
4957;SDS011;2494;51.872;9.688;2023-04-25T02:01:53;13.50;;;7.13;;
4957;SDS011;2494;51.872;9.688;2023-04-25T02:04:39;11.07;;;7.30;;
4957;SDS011;2494;51.872;9.688;2023-04-25T02:07:23;16.17;;;8.53;;
4957;SDS011;2494;51.872;9.688;2023-04-25T02:10:09;19.10;;;8.37;;
4957;SDS011;2494;51.872;9.688;2023-04-25T02:12:56;9.90;;;7.70;;
4957;SDS011;2494;51.872;9.688;2023-04-25T02:15:41;12.43;;;8.23;;
4957;SDS011;2494;51.872;9.688;2023-04-25T02:18:26;18.77;;;8.07;;
4957;SDS011;2494;51.872;9.688;2023-04-25T02:21:11;11.20;;;9.50;;
4957;SDS011;2494;51.872;9.688;2023-04-25T02:23:56;19.67;;;9.40;;
4957;SDS011;2494;51.872;9.688;2023-04-25T02:26:42;16.67;;;10.20;;
4957;SDS011;2494;51.872;9.688;2023-04-25T02:29:29;13.67;;;9.40;;
4957;SDS011;2494;51.872;9.688;2023-04-25T02:32:14;16.93;;;10.77;;
4957;SDS011;2494;51.872;9.688;2023-04-25T02:34:59;18.87;;;11.80;;
4957;SDS011;2494;51.872;9.688;2023-04-25T02:37:47;15.90;;;10.20;;
4957;SDS011;2494;51.872;9.688;2023-04-25T02:40:32;14.47;;;11.10;;
4957;SDS011;2494;51.872;9.688;2023-04-25T02:43:18;13.30;;;10.40;;
4957;SDS011;2494;51.872;9.688;2023-04-25T02:46:07;14.33;;;12.30;;
4957;SDS011;2494;51.872;9.688;2023-04-25T02:48:52;17.37;;;10.47;;
4957;SDS011;2494;51.872;9.688;2023-04-25T02:51:37;16.23;;;10.53;;
4957;SDS011;2494;51.872;9.688;2023-04-25T02:54:22;15.57;;;10.87;;
4957;SDS011;2494;51.872;9.688;2023-04-25T02:57:07;14.37;;;11.20;;
4957;SDS011;2494;51.872;9.688;2023-04-25T02:59:53;20.97;;;12.37;;
4957;SDS011;2494;51.872;9.688;2023-04-25T03:02:40;14.50;;;11.30;;
4957;SDS011;2494;51.872;9.688;2023-04-25T03:05:25;15.57;;;11.93;;
4957;SDS011;2494;51.872;9.688;2023-04-25T03:08:10;14.93;;;12.73;;
4957;SDS011;2494;51.872;9.688;2023-04-25T03:10:56;14.80;;;11.70;;
4957;SDS011;2494;51.872;9.688;2023-04-25T03:13:42;14.00;;;11.90;;
4957;SDS011;2494;51.872;9.688;2023-04-25T03:16:27;15.20;;;11.07;;
4957;SDS011;2494;51.872;9.688;2023-04-25T03:19:14;15.30;;;13.30;;
4957;SDS011;2494;51.872;9.688;2023-04-25T03:22:00;16.03;;;11.70;;
4957;SDS011;2494;51.872;9.688;2023-04-25T03:24:45;17.53;;;12.70;;
4957;SDS011;2494;51.872;9.688;2023-04-25T03:27:30;15.30;;;12.43;;
4957;SDS011;2494;51.872;9.688;2023-04-25T03:30:15;16.00;;;11.30;;
4957;SDS011;2494;51.872;9.688;2023-04-25T03:33:00;14.80;;;11.50;;
4957;SDS011;2494;51.872;9.688;2023-04-25T03:35:47;17.70;;;11.57;;
4957;SDS011;2494;51.872;9.688;2023-04-25T03:38:33;13.80;;;10.87;;
4957;SDS011;2494;51.872;9.688;2023-04-25T03:41:18;15.93;;;11.20;;
4957;SDS011;2494;51.872;9.688;2023-04-25T03:44:03;14.00;;;10.77;;
4957;SDS011;2494;51.872;9.688;2023-04-25T03:46:48;21.37;;;13.83;;
4957;SDS011;2494;51.872;9.688;2023-04-25T03:49:34;12.80;;;11.17;;
4957;SDS011;2494;51.872;9.688;2023-04-25T03:52:20;16.47;;;11.80;;
4957;SDS011;2494;51.872;9.688;2023-04-25T03:55:06;12.93;;;11.00;;
4957;SDS011;2494;51.872;9.688;2023-04-25T03:57:51;11.87;;;9.30;;
4957;SDS011;2494;51.872;9.688;2023-04-25T04:00:36;10.97;;;6.10;;
4957;SDS011;2494;51.872;9.688;2023-04-25T04:03:21;14.73;;;5.93;;
4957;SDS011;2494;51.872;9.688;2023-04-25T04:06:06;12.00;;;5.37;;
4957;SDS011;2494;51.872;9.688;2023-04-25T04:08:54;17.37;;;6.50;;
4957;SDS011;2494;51.872;9.688;2023-04-25T04:11:39;19.60;;;4.87;;
4957;SDS011;2494;51.872;9.688;2023-04-25T04:14:24;9.73;;;5.60;;
4957;SDS011;2494;51.872;9.688;2023-04-25T04:17:09;15.23;;;5.67;;
4957;SDS011;2494;51.872;9.688;2023-04-25T04:19:54;21.77;;;5.43;;
4957;SDS011;2494;51.872;9.688;2023-04-25T04:22:39;18.20;;;4.83;;
4957;SDS011;2494;51.872;9.688;2023-04-25T04:25:26;15.03;;;5.50;;
4957;SDS011;2494;51.872;9.688;2023-04-25T04:28:12;17.27;;;5.53;;
4957;SDS011;2494;51.872;9.688;2023-04-25T04:30:56;22.10;;;5.37;;
4957;SDS011;2494;51.872;9.688;2023-04-25T04:33:42;19.27;;;4.83;;
4957;SDS011;2494;51.872;9.688;2023-04-25T04:36:28;21.67;;;6.20;;
4957;SDS011;2494;51.872;9.688;2023-04-25T04:39:13;21.27;;;6.37;;
4957;SDS011;2494;51.872;9.688;2023-04-25T04:42:00;15.70;;;6.07;;
4957;SDS011;2494;51.872;9.688;2023-04-25T04:44:46;16.60;;;4.50;;
4957;SDS011;2494;51.872;9.688;2023-04-25T04:47:31;15.10;;;4.90;;
4957;SDS011;2494;51.872;9.688;2023-04-25T04:50:17;19.10;;;5.60;;
4957;SDS011;2494;51.872;9.688;2023-04-25T04:53:03;10.33;;;4.70;;
4957;SDS011;2494;51.872;9.688;2023-04-25T04:55:49;12.83;;;5.40;;
4957;SDS011;2494;51.872;9.688;2023-04-25T04:58:35;15.83;;;5.20;;
4957;SDS011;2494;51.872;9.688;2023-04-25T05:01:20;13.77;;;5.40;;
4957;SDS011;2494;51.872;9.688;2023-04-25T05:04:06;19.63;;;5.13;;
4957;SDS011;2494;51.872;9.688;2023-04-25T05:06:51;14.33;;;6.17;;
4957;SDS011;2494;51.872;9.688;2023-04-25T05:09:36;11.47;;;5.07;;
4957;SDS011;2494;51.872;9.688;2023-04-25T05:12:22;22.03;;;6.33;;
4957;SDS011;2494;51.872;9.688;2023-04-25T05:15:09;10.50;;;4.77;;
4957;SDS011;2494;51.872;9.688;2023-04-25T05:17:54;15.17;;;4.50;;
4957;SDS011;2494;51.872;9.688;2023-04-25T05:20:39;18.33;;;5.20;;
4957;SDS011;2494;51.872;9.688;2023-04-25T05:23:24;18.43;;;6.47;;
4957;SDS011;2494;51.872;9.688;2023-04-25T05:26:11;23.57;;;6.87;;
4957;SDS011;2494;51.872;9.688;2023-04-25T05:28:57;22.50;;;5.97;;
4957;SDS011;2494;51.872;9.688;2023-04-25T05:31:44;7.90;;;4.93;;
4957;SDS011;2494;51.872;9.688;2023-04-25T05:34:31;15.80;;;6.07;;
4957;SDS011;2494;51.872;9.688;2023-04-25T05:37:17;16.70;;;5.53;;
4957;SDS011;2494;51.872;9.688;2023-04-25T05:40:02;16.10;;;5.60;;
4957;SDS011;2494;51.872;9.688;2023-04-25T05:42:50;12.57;;;5.77;;
4957;SDS011;2494;51.872;9.688;2023-04-25T05:45:35;13.53;;;4.20;;
4957;SDS011;2494;51.872;9.688;2023-04-25T05:48:22;10.93;;;5.37;;
4957;SDS011;2494;51.872;9.688;2023-04-25T05:51:07;19.07;;;3.90;;
4957;SDS011;2494;51.872;9.688;2023-04-25T05:53:52;15.77;;;5.60;;
4957;SDS011;2494;51.872;9.688;2023-04-25T05:56:37;19.13;;;4.83;;
4957;SDS011;2494;51.872;9.688;2023-04-25T05:59:22;12.83;;;4.13;;
4957;SDS011;2494;51.872;9.688;2023-04-25T06:02:07;12.83;;;4.00;;
4957;SDS011;2494;51.872;9.688;2023-04-25T06:04:54;12.90;;;4.60;;
4957;SDS011;2494;51.872;9.688;2023-04-25T06:07:39;11.60;;;4.60;;
4957;SDS011;2494;51.872;9.688;2023-04-25T06:10:24;7.80;;;3.47;;
4957;SDS011;2494;51.872;9.688;2023-04-25T06:13:09;14.47;;;4.13;;
4957;SDS011;2494;51.872;9.688;2023-04-25T06:15:54;12.73;;;4.30;;
4957;SDS011;2494;51.872;9.688;2023-04-25T06:18:40;9.23;;;4.20;;
4957;SDS011;2494;51.872;9.688;2023-04-25T06:21:26;16.43;;;4.83;;
4957;SDS011;2494;51.872;9.688;2023-04-25T06:24:12;23.57;;;4.80;;
4957;SDS011;2494;51.872;9.688;2023-04-25T06:26:57;6.97;;;3.80;;
4957;SDS011;2494;51.872;9.688;2023-04-25T06:29:42;9.53;;;4.37;;
4957;SDS011;2494;51.872;9.688;2023-04-25T06:32:28;14.53;;;4.40;;
4957;SDS011;2494;51.872;9.688;2023-04-25T06:35:13;15.57;;;4.00;;
4957;SDS011;2494;51.872;9.688;2023-04-25T06:38:00;19.17;;;6.17;;
4957;SDS011;2494;51.872;9.688;2023-04-25T06:40:46;21.10;;;10.47;;
4957;SDS011;2494;51.872;9.688;2023-04-25T06:43:31;12.30;;;5.37;;
4957;SDS011;2494;51.872;9.688;2023-04-25T06:46:17;9.63;;;4.33;;
4957;SDS011;2494;51.872;9.688;2023-04-25T06:49:02;21.00;;;8.03;;
4957;SDS011;2494;51.872;9.688;2023-04-25T06:51:48;14.90;;;8.97;;
4957;SDS011;2494;51.872;9.688;2023-04-25T06:54:34;23.17;;;5.67;;
4957;SDS011;2494;51.872;9.688;2023-04-25T06:57:19;9.87;;;4.67;;
4957;SDS011;2494;51.872;9.688;2023-04-25T07:00:05;14.67;;;5.57;;
4957;SDS011;2494;51.872;9.688;2023-04-25T07:02:53;16.20;;;5.33;;
4957;SDS011;2494;51.872;9.688;2023-04-25T07:05:38;24.67;;;7.60;;
4957;SDS011;2494;51.872;9.688;2023-04-25T07:08:23;22.60;;;5.00;;
4957;SDS011;2494;51.872;9.688;2023-04-25T07:11:10;11.77;;;4.47;;
4957;SDS011;2494;51.872;9.688;2023-04-25T07:13:55;9.57;;;3.20;;
4957;SDS011;2494;51.872;9.688;2023-04-25T07:16:40;16.73;;;4.57;;
4957;SDS011;2494;51.872;9.688;2023-04-25T07:19:26;15.43;;;3.60;;
4957;SDS011;2494;51.872;9.688;2023-04-25T07:22:13;16.00;;;4.00;;
4957;SDS011;2494;51.872;9.688;2023-04-25T07:24:58;12.70;;;3.77;;
4957;SDS011;2494;51.872;9.688;2023-04-25T07:27:45;19.77;;;9.20;;
4957;SDS011;2494;51.872;9.688;2023-04-25T07:30:31;18.30;;;5.20;;
4957;SDS011;2494;51.872;9.688;2023-04-25T07:33:17;11.50;;;3.60;;
4957;SDS011;2494;51.872;9.688;2023-04-25T07:36:04;13.50;;;4.10;;
4957;SDS011;2494;51.872;9.688;2023-04-25T07:38:49;9.53;;;3.90;;
4957;SDS011;2494;51.872;9.688;2023-04-25T07:41:33;11.80;;;4.37;;
4957;SDS011;2494;51.872;9.688;2023-04-25T07:44:20;11.27;;;6.00;;
4957;SDS011;2494;51.872;9.688;2023-04-25T07:47:06;8.10;;;3.40;;
4957;SDS011;2494;51.872;9.688;2023-04-25T07:49:51;10.70;;;3.07;;
4957;SDS011;2494;51.872;9.688;2023-04-25T07:52:37;14.03;;;2.90;;
4957;SDS011;2494;51.872;9.688;2023-04-25T07:55:22;13.00;;;2.70;;
4957;SDS011;2494;51.872;9.688;2023-04-25T07:58:07;8.53;;;2.60;;
4957;SDS011;2494;51.872;9.688;2023-04-25T08:00:54;10.23;;;2.53;;
4957;SDS011;2494;51.872;9.688;2023-04-25T08:03:39;12.90;;;3.00;;
4957;SDS011;2494;51.872;9.688;2023-04-25T08:06:24;13.00;;;6.97;;
4957;SDS011;2494;51.872;9.688;2023-04-25T08:09:11;8.67;;;7.57;;
4957;SDS011;2494;51.872;9.688;2023-04-25T08:11:55;8.73;;;5.03;;
4957;SDS011;2494;51.872;9.688;2023-04-25T08:14:41;12.50;;;4.60;;
4957;SDS011;2494;51.872;9.688;2023-04-25T08:17:28;9.60;;;2.97;;
4957;SDS011;2494;51.872;9.688;2023-04-25T08:20:13;9.67;;;3.23;;
4957;SDS011;2494;51.872;9.688;2023-04-25T08:22:59;9.53;;;2.20;;
4957;SDS011;2494;51.872;9.688;2023-04-25T08:25:44;8.63;;;3.70;;
4957;SDS011;2494;51.872;9.688;2023-04-25T08:28:29;12.53;;;3.80;;
4957;SDS011;2494;51.872;9.688;2023-04-25T08:31:15;12.97;;;3.57;;
4957;SDS011;2494;51.872;9.688;2023-04-25T08:34:01;8.43;;;2.57;;
4957;SDS011;2494;51.872;9.688;2023-04-25T08:36:46;15.20;;;4.07;;
4957;SDS011;2494;51.872;9.688;2023-04-25T08:39:31;10.90;;;3.47;;
4957;SDS011;2494;51.872;9.688;2023-04-25T08:42:17;11.30;;;3.47;;
4957;SDS011;2494;51.872;9.688;2023-04-25T08:45:02;10.80;;;5.97;;
4957;SDS011;2494;51.872;9.688;2023-04-25T08:47:48;8.13;;;3.23;;
4957;SDS011;2494;51.872;9.688;2023-04-25T08:50:38;8.20;;;3.03;;
4957;SDS011;2494;51.872;9.688;2023-04-25T08:53:25;7.10;;;2.23;;
4957;SDS011;2494;51.872;9.688;2023-04-25T08:56:11;7.47;;;2.87;;
4957;SDS011;2494;51.872;9.688;2023-04-25T08:58:58;3.97;;;2.20;;
4957;SDS011;2494;51.872;9.688;2023-04-25T09:01:44;12.07;;;4.73;;
4957;SDS011;2494;51.872;9.688;2023-04-25T09:04:30;5.17;;;2.90;;
4957;SDS011;2494;51.872;9.688;2023-04-25T09:07:17;7.83;;;3.20;;
4957;SDS011;2494;51.872;9.688;2023-04-25T09:10:05;10.93;;;3.27;;
4957;SDS011;2494;51.872;9.688;2023-04-25T09:13:01;8.67;;;2.93;;
4957;SDS011;2494;51.872;9.688;2023-04-25T09:15:47;8.57;;;2.97;;
4957;SDS011;2494;51.872;9.688;2023-04-25T09:18:34;19.10;;;3.00;;
4957;SDS011;2494;51.872;9.688;2023-04-25T09:21:21;8.47;;;2.17;;
4957;SDS011;2494;51.872;9.688;2023-04-25T09:24:08;7.50;;;2.37;;
4957;SDS011;2494;51.872;9.688;2023-04-25T09:26:54;6.43;;;2.20;;
4957;SDS011;2494;51.872;9.688;2023-04-25T09:29:39;11.50;;;2.13;;
4957;SDS011;2494;51.872;9.688;2023-04-25T09:32:25;12.10;;;2.70;;
4957;SDS011;2494;51.872;9.688;2023-04-25T09:35:10;6.77;;;3.17;;
4957;SDS011;2494;51.872;9.688;2023-04-25T09:37:55;3.63;;;2.50;;
4957;SDS011;2494;51.872;9.688;2023-04-25T09:40:42;7.13;;;2.20;;
4957;SDS011;2494;51.872;9.688;2023-04-25T09:43:28;1.80;;;1.40;;
4957;SDS011;2494;51.872;9.688;2023-04-25T09:46:13;6.07;;;1.67;;
4957;SDS011;2494;51.872;9.688;2023-04-25T09:48:59;5.00;;;1.97;;
4957;SDS011;2494;51.872;9.688;2023-04-25T09:51:54;4.73;;;1.80;;
4957;SDS011;2494;51.872;9.688;2023-04-25T09:54:40;8.47;;;2.43;;
4957;SDS011;2494;51.872;9.688;2023-04-25T09:57:26;1.90;;;1.67;;
4957;SDS011;2494;51.872;9.688;2023-04-25T10:00:12;3.80;;;1.77;;
4957;SDS011;2494;51.872;9.688;2023-04-25T10:02:57;3.50;;;2.23;;
4957;SDS011;2494;51.872;9.688;2023-04-25T10:05:44;2.93;;;1.90;;
4957;SDS011;2494;51.872;9.688;2023-04-25T10:08:32;6.50;;;2.03;;
4957;SDS011;2494;51.872;9.688;2023-04-25T10:11:17;3.80;;;3.33;;
4957;SDS011;2494;51.872;9.688;2023-04-25T10:14:04;4.20;;;1.83;;
4957;SDS011;2494;51.872;9.688;2023-04-25T10:16:49;6.13;;;2.10;;
4957;SDS011;2494;51.872;9.688;2023-04-25T10:19:37;6.07;;;3.63;;
4957;SDS011;2494;51.872;9.688;2023-04-25T10:22:23;6.30;;;2.93;;
4957;SDS011;2494;51.872;9.688;2023-04-25T10:25:11;5.40;;;2.50;;
4957;SDS011;2494;51.872;9.688;2023-04-25T10:27:55;5.37;;;2.37;;
4957;SDS011;2494;51.872;9.688;2023-04-25T10:33:42;8.17;;;2.80;;
4957;SDS011;2494;51.872;9.688;2023-04-25T10:36:27;10.13;;;3.30;;
4957;SDS011;2494;51.872;9.688;2023-04-25T10:39:21;3.33;;;2.27;;
4957;SDS011;2494;51.872;9.688;2023-04-25T10:42:07;6.37;;;2.10;;
4957;SDS011;2494;51.872;9.688;2023-04-25T10:45:00;5.47;;;1.90;;
4957;SDS011;2494;51.872;9.688;2023-04-25T10:47:46;5.20;;;2.00;;
4957;SDS011;2494;51.872;9.688;2023-04-25T10:50:38;11.03;;;1.80;;
4957;SDS011;2494;51.872;9.688;2023-04-25T10:53:24;10.60;;;2.43;;
4957;SDS011;2494;51.872;9.688;2023-04-25T10:56:10;5.50;;;2.10;;
4957;SDS011;2494;51.872;9.688;2023-04-25T10:59:03;7.67;;;2.53;;
4957;SDS011;2494;51.872;9.688;2023-04-25T11:01:51;10.97;;;2.40;;
4957;SDS011;2494;51.872;9.688;2023-04-25T11:04:36;6.07;;;4.07;;
4957;SDS011;2494;51.872;9.688;2023-04-25T11:07:26;5.87;;;2.57;;
4957;SDS011;2494;51.872;9.688;2023-04-25T11:10:14;3.53;;;2.23;;
4957;SDS011;2494;51.872;9.688;2023-04-25T11:12:59;7.67;;;2.30;;
4957;SDS011;2494;51.872;9.688;2023-04-25T11:15:45;7.37;;;2.13;;
4957;SDS011;2494;51.872;9.688;2023-04-25T11:18:30;3.80;;;2.30;;
4957;SDS011;2494;51.872;9.688;2023-04-25T11:21:16;6.40;;;2.83;;
4957;SDS011;2494;51.872;9.688;2023-04-25T11:24:03;4.80;;;1.97;;
4957;SDS011;2494;51.872;9.688;2023-04-25T11:26:48;4.50;;;2.00;;
4957;SDS011;2494;51.872;9.688;2023-04-25T11:29:34;4.30;;;2.40;;
4957;SDS011;2494;51.872;9.688;2023-04-25T11:32:20;7.47;;;2.17;;
4957;SDS011;2494;51.872;9.688;2023-04-25T11:35:06;7.00;;;2.10;;
4957;SDS011;2494;51.872;9.688;2023-04-25T11:37:51;5.73;;;1.90;;
4957;SDS011;2494;51.872;9.688;2023-04-25T11:40:38;5.10;;;1.70;;
4957;SDS011;2494;51.872;9.688;2023-04-25T11:43:23;2.40;;;1.90;;
4957;SDS011;2494;51.872;9.688;2023-04-25T11:46:08;3.23;;;2.40;;
4957;SDS011;2494;51.872;9.688;2023-04-25T11:48:53;6.73;;;2.50;;
4957;SDS011;2494;51.872;9.688;2023-04-25T11:51:40;3.50;;;2.40;;
4957;SDS011;2494;51.872;9.688;2023-04-25T11:54:25;7.53;;;3.20;;
4957;SDS011;2494;51.872;9.688;2023-04-25T11:57:12;7.30;;;4.43;;
4957;SDS011;2494;51.872;9.688;2023-04-25T12:00:04;6.87;;;2.30;;
4957;SDS011;2494;51.872;9.688;2023-04-25T12:02:51;10.30;;;3.70;;
4957;SDS011;2494;51.872;9.688;2023-04-25T12:05:36;5.10;;;2.60;;
4957;SDS011;2494;51.872;9.688;2023-04-25T12:08:23;3.90;;;2.10;;
4957;SDS011;2494;51.872;9.688;2023-04-25T12:11:19;4.60;;;2.33;;
4957;SDS011;2494;51.872;9.688;2023-04-25T12:14:06;3.67;;;2.47;;
4957;SDS011;2494;51.872;9.688;2023-04-25T12:16:52;10.30;;;4.53;;
4957;SDS011;2494;51.872;9.688;2023-04-25T12:19:37;5.07;;;1.97;;
4957;SDS011;2494;51.872;9.688;2023-04-25T12:22:24;3.70;;;2.87;;
4957;SDS011;2494;51.872;9.688;2023-04-25T12:25:09;3.27;;;1.70;;
4957;SDS011;2494;51.872;9.688;2023-04-25T12:27:54;3.40;;;2.50;;
4957;SDS011;2494;51.872;9.688;2023-04-25T12:31:06;8.23;;;2.00;;
4957;SDS011;2494;51.872;9.688;2023-04-25T12:33:51;4.80;;;1.80;;
4957;SDS011;2494;51.872;9.688;2023-04-25T12:36:36;4.00;;;1.90;;
4957;SDS011;2494;51.872;9.688;2023-04-25T12:39:23;3.27;;;1.67;;
4957;SDS011;2494;51.872;9.688;2023-04-25T12:42:08;5.70;;;1.57;;
4957;SDS011;2494;51.872;9.688;2023-04-25T12:44:55;13.70;;;1.87;;
4957;SDS011;2494;51.872;9.688;2023-04-25T12:47:42;1.80;;;1.60;;
4957;SDS011;2494;51.872;9.688;2023-04-25T12:50:27;6.37;;;1.77;;
4957;SDS011;2494;51.872;9.688;2023-04-25T12:53:12;5.10;;;1.63;;
4957;SDS011;2494;51.872;9.688;2023-04-25T12:55:57;6.87;;;1.87;;
4957;SDS011;2494;51.872;9.688;2023-04-25T12:58:42;4.13;;;1.73;;
4957;SDS011;2494;51.872;9.688;2023-04-25T13:01:29;4.03;;;2.00;;
4957;SDS011;2494;51.872;9.688;2023-04-25T13:04:15;2.80;;;2.20;;
4957;SDS011;2494;51.872;9.688;2023-04-25T13:07:01;3.43;;;1.80;;
4957;SDS011;2494;51.872;9.688;2023-04-25T13:09:47;6.30;;;3.57;;
4957;SDS011;2494;51.872;9.688;2023-04-25T13:12:31;5.50;;;1.70;;
4957;SDS011;2494;51.872;9.688;2023-04-25T13:15:17;4.53;;;1.90;;
4957;SDS011;2494;51.872;9.688;2023-04-25T13:18:02;6.97;;;1.60;;
4957;SDS011;2494;51.872;9.688;2023-04-25T13:20:49;4.00;;;1.90;;
4957;SDS011;2494;51.872;9.688;2023-04-25T13:23:34;7.03;;;1.83;;
4957;SDS011;2494;51.872;9.688;2023-04-25T13:26:19;1.50;;;1.40;;
4957;SDS011;2494;51.872;9.688;2023-04-25T13:29:04;5.43;;;3.20;;
4957;SDS011;2494;51.872;9.688;2023-04-25T13:31:49;2.13;;;1.47;;
4957;SDS011;2494;51.872;9.688;2023-04-25T13:34:34;2.27;;;1.60;;
4957;SDS011;2494;51.872;9.688;2023-04-25T13:37:20;6.20;;;1.83;;
4957;SDS011;2494;51.872;9.688;2023-04-25T13:40:09;5.33;;;1.80;;
4957;SDS011;2494;51.872;9.688;2023-04-25T13:42:55;5.70;;;1.60;;
4957;SDS011;2494;51.872;9.688;2023-04-25T13:45:40;3.43;;;1.30;;
4957;SDS011;2494;51.872;9.688;2023-04-25T13:48:25;3.63;;;1.50;;
4957;SDS011;2494;51.872;9.688;2023-04-25T13:51:11;4.10;;;1.60;;
4957;SDS011;2494;51.872;9.688;2023-04-25T13:53:58;5.50;;;1.87;;
4957;SDS011;2494;51.872;9.688;2023-04-25T13:56:43;3.70;;;1.53;;
4957;SDS011;2494;51.872;9.688;2023-04-25T13:59:28;3.33;;;1.90;;
4957;SDS011;2494;51.872;9.688;2023-04-25T14:02:13;3.87;;;1.50;;
4957;SDS011;2494;51.872;9.688;2023-04-25T14:04:58;2.60;;;2.00;;
4957;SDS011;2494;51.872;9.688;2023-04-25T14:07:44;2.10;;;1.37;;
4957;SDS011;2494;51.872;9.688;2023-04-25T14:10:31;5.10;;;1.40;;
4957;SDS011;2494;51.872;9.688;2023-04-25T14:13:16;4.00;;;1.20;;
4957;SDS011;2494;51.872;9.688;2023-04-25T14:16:01;1.20;;;1.10;;
4957;SDS011;2494;51.872;9.688;2023-04-25T14:18:46;4.43;;;1.70;;
4957;SDS011;2494;51.872;9.688;2023-04-25T14:21:30;4.13;;;1.60;;
4957;SDS011;2494;51.872;9.688;2023-04-25T14:24:17;2.10;;;1.50;;
4957;SDS011;2494;51.872;9.688;2023-04-25T14:27:03;1.70;;;1.00;;
4957;SDS011;2494;51.872;9.688;2023-04-25T14:29:48;5.97;;;1.40;;
4957;SDS011;2494;51.872;9.688;2023-04-25T14:32:34;3.23;;;1.70;;
4957;SDS011;2494;51.872;9.688;2023-04-25T14:35:19;3.07;;;1.37;;
4957;SDS011;2494;51.872;9.688;2023-04-25T14:38:04;5.40;;;1.33;;
4957;SDS011;2494;51.872;9.688;2023-04-25T14:40:48;2.17;;;1.27;;
4957;SDS011;2494;51.872;9.688;2023-04-25T14:43:35;4.00;;;1.80;;
4957;SDS011;2494;51.872;9.688;2023-04-25T14:46:20;1.80;;;1.40;;
4957;SDS011;2494;51.872;9.688;2023-04-25T14:49:06;2.00;;;1.40;;
4957;SDS011;2494;51.872;9.688;2023-04-25T14:51:51;5.33;;;1.43;;
4957;SDS011;2494;51.872;9.688;2023-04-25T14:54:36;3.00;;;1.47;;
4957;SDS011;2494;51.872;9.688;2023-04-25T14:57:21;2.00;;;1.40;;
4957;SDS011;2494;51.872;9.688;2023-04-25T15:00:09;8.40;;;1.30;;
4957;SDS011;2494;51.872;9.688;2023-04-25T15:02:55;2.70;;;1.30;;
4957;SDS011;2494;51.872;9.688;2023-04-25T15:05:41;4.47;;;1.90;;
4957;SDS011;2494;51.872;9.688;2023-04-25T15:08:27;3.47;;;1.80;;
4957;SDS011;2494;51.872;9.688;2023-04-25T15:11:11;2.87;;;1.80;;
4957;SDS011;2494;51.872;9.688;2023-04-25T15:13:56;5.70;;;2.20;;
4957;SDS011;2494;51.872;9.688;2023-04-25T15:16:43;2.40;;;1.87;;
4957;SDS011;2494;51.872;9.688;2023-04-25T15:19:28;5.73;;;2.00;;
4957;SDS011;2494;51.872;9.688;2023-04-25T15:22:13;4.00;;;1.73;;
4957;SDS011;2494;51.872;9.688;2023-04-25T15:24:58;3.20;;;1.43;;
4957;SDS011;2494;51.872;9.688;2023-04-25T15:27:44;2.93;;;1.70;;
4957;SDS011;2494;51.872;9.688;2023-04-25T15:30:31;3.10;;;1.40;;
4957;SDS011;2494;51.872;9.688;2023-04-25T15:33:18;1.87;;;1.10;;
4957;SDS011;2494;51.872;9.688;2023-04-25T15:36:04;4.07;;;1.30;;
4957;SDS011;2494;51.872;9.688;2023-04-25T15:38:49;3.00;;;1.30;;
4957;SDS011;2494;51.872;9.688;2023-04-25T15:41:35;2.53;;;1.10;;
4957;SDS011;2494;51.872;9.688;2023-04-25T15:44:20;3.10;;;1.57;;
4957;SDS011;2494;51.872;9.688;2023-04-25T15:47:05;1.80;;;1.70;;
4957;SDS011;2494;51.872;9.688;2023-04-25T15:49:52;2.70;;;1.20;;
4957;SDS011;2494;51.872;9.688;2023-04-25T15:52:38;4.20;;;1.30;;
4957;SDS011;2494;51.872;9.688;2023-04-25T15:55:23;2.20;;;1.10;;
4957;SDS011;2494;51.872;9.688;2023-04-25T15:58:09;1.33;;;1.23;;
4957;SDS011;2494;51.872;9.688;2023-04-25T16:00:54;1.93;;;1.40;;
4957;SDS011;2494;51.872;9.688;2023-04-25T16:03:40;4.77;;;1.30;;
4957;SDS011;2494;51.872;9.688;2023-04-25T16:06:26;2.33;;;1.47;;
4957;SDS011;2494;51.872;9.688;2023-04-25T16:09:12;2.23;;;1.60;;
4957;SDS011;2494;51.872;9.688;2023-04-25T16:11:57;2.53;;;1.20;;
4957;SDS011;2494;51.872;9.688;2023-04-25T16:14:42;1.70;;;1.60;;
4957;SDS011;2494;51.872;9.688;2023-04-25T16:17:27;2.40;;;1.40;;
4957;SDS011;2494;51.872;9.688;2023-04-25T16:20:12;8.13;;;1.93;;
4957;SDS011;2494;51.872;9.688;2023-04-25T16:22:59;1.77;;;1.30;;
4957;SDS011;2494;51.872;9.688;2023-04-25T16:25:44;6.37;;;1.43;;
4957;SDS011;2494;51.872;9.688;2023-04-25T16:28:29;2.03;;;1.40;;
4957;SDS011;2494;51.872;9.688;2023-04-25T16:31:13;1.40;;;1.03;;
4957;SDS011;2494;51.872;9.688;2023-04-25T16:33:59;2.07;;;1.30;;
4957;SDS011;2494;51.872;9.688;2023-04-25T16:36:44;2.40;;;1.53;;
4957;SDS011;2494;51.872;9.688;2023-04-25T16:39:31;1.97;;;1.40;;
4957;SDS011;2494;51.872;9.688;2023-04-25T16:42:17;2.33;;;1.53;;
4957;SDS011;2494;51.872;9.688;2023-04-25T16:45:02;2.07;;;1.87;;
4957;SDS011;2494;51.872;9.688;2023-04-25T16:47:47;2.63;;;1.63;;
4957;SDS011;2494;51.872;9.688;2023-04-25T16:50:32;2.13;;;1.43;;
4957;SDS011;2494;51.872;9.688;2023-04-25T16:53:17;2.47;;;2.27;;
4957;SDS011;2494;51.872;9.688;2023-04-25T16:56:04;4.30;;;2.03;;
4957;SDS011;2494;51.872;9.688;2023-04-25T16:58:50;1.83;;;1.60;;
4957;SDS011;2494;51.872;9.688;2023-04-25T17:01:35;4.73;;;1.90;;
4957;SDS011;2494;51.872;9.688;2023-04-25T17:04:20;3.37;;;2.10;;